»·PEaware :: N288DP KVCV-KFAT

N288DP :: KVCV-KFAT

FLIGHT INFORMATION

Flight Status: Arrived
Operator: Privately registered:
United States
More flights under this callsign
Pilot: Anonymous 30260 (30260)
Aircraft: BOEING 737-300
(B733)
More flights by this aircraft type
Origin: KVCV Socal Logistics
United States
Destination: KFAT Fresno Yosemite Intl
United States
More flights between these airports :: More routes between these airports
Route: +PMD J6 LANDO TTE ALTTA9
File this flight plan on PilotEdge
Remarks:
Altitude:
(Current/Filed)
20,000ft
Speed:
(Current/Filed)
439kts
Departed: 18-Oct-20 09:34 AM
Arrived: 18-Oct-20 10:15 AM
Distance/Time
Traveled:
173nm/0:41
Distance/Time
To Go:
Arrived

Flight Plot

Page will automatically refresh every two minutes.

Flight plan parsing failed; only flown route is shown


Map Options




Map Legend


Flown Route
Filed Route
Departure Airport
Arrival Airport
Navaid (VOR, NDB)
Fix

Horizontal Profiles

Position Reports

Time Latitude Longitude Heading Altitude Ground
Speed
18-Oct-20 08:55 34.584420 -117.381285 314 2880ft 0kts
18-Oct-20 08:56 34.584420 -117.381285 314 2880ft 0kts
18-Oct-20 08:57 34.584420 -117.381285 314 2880ft 0kts
18-Oct-20 08:58 34.584420 -117.381285 314 2880ft 0kts
18-Oct-20 08:59 34.584420 -117.381285 314 2880ft 0kts
18-Oct-20 09:00 34.584420 -117.381285 314 2880ft 0kts
18-Oct-20 09:01 34.584420 -117.381285 314 2880ft 0kts
18-Oct-20 09:02 34.584420 -117.381285 314 2880ft 0kts
18-Oct-20 09:03 34.584420 -117.381285 314 2880ft 0kts
18-Oct-20 09:04 34.584420 -117.381285 314 2880ft 0kts
18-Oct-20 09:05 34.584420 -117.381285 314 2880ft 0kts
18-Oct-20 09:06 34.584420 -117.381285 314 2880ft 0kts
18-Oct-20 09:07 34.584420 -117.381285 314 2880ft 0kts
18-Oct-20 09:08 34.584420 -117.381285 314 2880ft 0kts
18-Oct-20 09:09 34.584420 -117.381285 314 2880ft 0kts
18-Oct-20 09:10 34.584420 -117.381285 314 2880ft 0kts
18-Oct-20 09:11 34.584420 -117.381285 314 2880ft 0kts
18-Oct-20 09:12 34.584420 -117.381285 314 2880ft 0kts
18-Oct-20 09:13 34.584420 -117.381285 314 2880ft 0kts
18-Oct-20 09:14 34.584420 -117.381285 314 2880ft 0kts
18-Oct-20 09:15 34.584420 -117.381285 314 2880ft 0kts
18-Oct-20 09:16 34.584420 -117.381285 314 2880ft 0kts
18-Oct-20 09:17 34.584420 -117.381285 314 2880ft 0kts
18-Oct-20 09:18 34.584420 -117.381285 314 2880ft 0kts
18-Oct-20 09:19 34.584420 -117.381285 314 2880ft 0kts
18-Oct-20 09:20 34.584420 -117.381285 314 2880ft 0kts
18-Oct-20 09:21 34.584420 -117.381285 314 2880ft 0kts
18-Oct-20 09:22 34.584420 -117.381285 314 2880ft 0kts
18-Oct-20 09:23 34.584420 -117.381285 314 2880ft 0kts
18-Oct-20 09:25 34.584420 -117.381285 314 2880ft 0kts
18-Oct-20 09:26 34.584420 -117.381285 314 2880ft 0kts
18-Oct-20 09:27 34.584938 -117.381955 324 2878ft 3kts
18-Oct-20 09:28 34.587249 -117.379482 44 2877ft 17kts
18-Oct-20 09:29 34.591018 -117.379239 315 2869ft 20kts
18-Oct-20 09:30 34.595411 -117.384024 356 2857ft 19kts
18-Oct-20 09:31 34.602583 -117.384014 3 2843ft 30kts
18-Oct-20 09:32 34.608915 -117.384162 359 2834ft 18kts
18-Oct-20 09:33 34.610563 -117.385476 269 2831ft 5kts
18-Oct-20 09:34 34.605063 -117.386607 180 2838ft 77kts
18-Oct-20 09:35 34.569000 -117.387899 195 4522ft 156kts
18-Oct-20 09:36 34.551131 -117.445277 261 5943ft 203kts
18-Oct-20 09:37 34.547481 -117.513760 262 6032ft 201kts
18-Oct-20 09:38 34.541900 -117.582432 262 6011ft 200kts
18-Oct-20 09:39 34.536251 -117.650997 261 6010ft 200kts
18-Oct-20 09:40 34.530412 -117.719225 261 6034ft 205kts
18-Oct-20 09:41 34.547766 -117.786542 288 9870ft 211kts
18-Oct-20 09:41 34.564140 -117.841570 291 12783ft 214kts
18-Oct-20 09:43 34.589048 -117.923797 291 16053ft 225kts
18-Oct-20 09:43 34.607238 -117.983644 290 18392ft 232kts
18-Oct-20 09:45 34.637650 -118.073331 306 20166ft 286kts
18-Oct-20 09:45 34.687086 -118.144220 309 20113ft 365kts
18-Oct-20 09:46 34.756258 -118.243772 309 20142ft 384kts
18-Oct-20 09:47 34.827160 -118.346299 309 20132ft 397kts
18-Oct-20 09:48 34.898207 -118.449346 309 20189ft 399kts
18-Oct-20 09:49 34.970635 -118.554714 309 20251ft 409kts
18-Oct-20 09:50 35.060053 -118.639688 342 20264ft 419kts
18-Oct-20 09:51 35.170689 -118.686762 339 20199ft 417kts
18-Oct-20 09:52 35.279518 -118.735209 339 20135ft 417kts
18-Oct-20 09:53 35.388657 -118.783983 339 20102ft 416kts
18-Oct-20 09:54 35.497294 -118.832672 339 20082ft 416kts
18-Oct-20 09:55 35.607739 -118.882318 338 20085ft 415kts
18-Oct-20 09:56 35.716636 -118.931408 338 20089ft 414kts
18-Oct-20 09:57 35.825514 -118.980631 338 18746ft 400kts
18-Oct-20 09:58 35.933644 -119.030243 336 20020ft 417kts
18-Oct-20 09:59 36.043497 -119.082761 337 19654ft 412kts
18-Oct-20 10:00 36.149424 -119.133083 336 17258ft 364kts
18-Oct-20 10:01 36.237209 -119.174965 336 15333ft 324kts
18-Oct-20 10:02 36.313657 -119.211498 336 14552ft 260kts
18-Oct-20 10:03 36.379486 -119.243076 337 12761ft 252kts
18-Oct-20 10:04 36.443615 -119.273877 336 10902ft 247kts
18-Oct-20 10:05 36.509175 -119.305421 336 8927ft 246kts
18-Oct-20 10:06 36.563199 -119.344905 302 7744ft 213kts
18-Oct-20 10:07 36.598036 -119.405602 308 6425ft 190kts
18-Oct-20 10:08 36.628988 -119.459536 308 5166ft 182kts
18-Oct-20 10:09 36.657713 -119.509478 308 4187ft 173kts
18-Oct-20 10:10 36.686277 -119.557805 305 3178ft 170kts
18-Oct-20 10:11 36.714519 -119.605633 305 2360ft 167kts
18-Oct-20 10:12 36.741579 -119.655721 305 1256ft 172kts
18-Oct-20 10:13 36.767629 -119.701428 305 387ft 143kts
18-Oct-20 10:14 36.779925 -119.722980 307 335ft 19kts
18-Oct-20 10:15 36.781483 -119.722525 44 336ft 6kts
18-Oct-20 10:16 36.779731 -119.718865 125 338ft 16kts
18-Oct-20 10:17 36.778147 -119.715449 36 337ft 5kts
18-Oct-20 10:18 36.779077 -119.715882 305 338ft 0kts
18-Oct-20 10:19 36.779077 -119.715882 305 338ft 0kts

Navigation Log

Ident Type
Flight plan parsing failed, navigation log unavailable